Time;durP1;ratioP1;P1;durP2;ratioP2;P2;SDS_P1;SDS_P2;PMS_P1;PMS_P2;Temp;Humidity;BMP_temperature;BMP_pressure;BME280_temperature;BME280_humidity;BME280_pressure;Samples;Min_cycle;Max_cycle;Signal;HPM_P1;HPM_P2
2022/04/24 00:00:32;;;;;;;15.75;8.27;;;;;;;;;;5075355;28;20104;-72
2022/04/24 00:03:02;;;;;;;13.77;7.93;;;;;;;;;;5078121;28;20024;-72
2022/04/24 00:05:28;;;;;;;16.20;8.07;;;;;;;;;;5074612;28;20036;-73
2022/04/24 00:07:54;;;;;;;16.83;8.95;;;;;;;;;;5076317;28;20025;-72
2022/04/24 00:10:20;;;;;;;13.55;7.95;;;;;;;;;;5078819;28;20559;-71
2022/04/24 00:12:46;;;;;;;13.80;7.43;;;;;;;;;;5081298;28;20124;-72
2022/04/24 00:15:12;;;;;;;13.35;7.70;;;;;;;;;;5076234;28;20040;-72
2022/04/24 00:17:39;;;;;;;15.50;9.10;;;;;;;;;;5074714;28;20029;-72
2022/04/24 00:20:05;;;;;;;14.50;7.90;;;;;;;;;;5074016;28;20016;-71
2022/04/24 00:22:31;;;;;;;12.27;7.97;;;;;;;;;;5077510;28;20422;-72
2022/04/24 00:24:57;;;;;;;14.27;7.70;;;;;;;;;;5072785;28;20028;-72
2022/04/24 00:27:23;;;;;;;13.45;8.35;;;;;;;;;;5071038;28;20025;-73
2022/04/24 00:29:51;;;;;;;17.35;8.43;;;;;;;;;;5071176;28;20072;-71
2022/04/24 00:32:17;;;;;;;17.60;7.63;;;;;;;;;;5078730;28;20478;-72
2022/04/24 00:34:43;;;;;;;16.02;6.53;;;;;;;;;;5076043;28;20059;-71
2022/04/24 00:37:09;;;;;;;15.70;6.70;;;;;;;;;;5076187;28;20020;-72
2022/04/24 00:39:35;;;;;;;10.90;7.10;;;;;;;;;;5075744;28;20056;-72
2022/04/24 00:42:32;;;;;;;15.52;7.00;;;;;;;;;;5081325;28;20056;-72
2022/04/24 00:44:58;;;;;;;16.23;7.72;;;;;;;;;;5080157;28;20105;-72
2022/04/24 00:47:24;;;;;;;10.90;6.47;;;;;;;;;;5077867;28;20027;-73
2022/04/24 00:50:00;;;;;;;12.13;6.47;;;;;;;;;;5076695;28;20312;-72
2022/04/24 00:52:26;;;;;;;;;;;;;;;;;;5073161;28;20225;-71
2022/04/24 00:54:51;;;;;;;;;;;;;;;;;;5079360;28;20371;-72
2022/04/24 00:57:18;;;;;;;9.93;5.68;;;;;;;;;;5082922;28;20329;-72
2022/04/24 00:59:44;;;;;;;11.13;6.55;;;;;;;;;;5078351;28;20024;-72
2022/04/24 01:02:10;;;;;;;12.82;5.53;;;;;;;;;;5076335;28;20046;-72
2022/04/24 01:04:37;;;;;;;16.13;7.20;;;;;;;;;;5076209;28;20031;-74
2022/04/24 01:07:03;;;;;;;14.40;6.00;;;;;;;;;;5078499;28;20116;-72
2022/04/24 01:09:36;;;;;;;17.45;6.10;;;;;;;;;;5078807;28;20079;-71
2022/04/24 01:12:02;;;;;;;16.23;6.15;;;;;;;;;;5074812;28;20609;-74
2022/04/24 01:14:30;;;;;;;13.80;6.32;;;;;;;;;;5075347;28;20096;-72
2022/04/24 01:16:56;;;;;;;15.10;6.22;;;;;;;;;;5077781;28;20044;-73
2022/04/24 01:19:24;;;;;;;17.83;7.05;;;;;;;;;;5074380;28;20055;-72
2022/04/24 01:21:50;;;;;;;18.92;7.55;;;;;;;;;;5072375;28;20115;-71
2022/04/24 01:24:20;;;;;;;12.07;6.45;;;;;;;;;;5091230;28;20027;-71
2022/04/24 01:26:47;;;;;;;20.40;6.38;;;;;;;;;;5075989;28;20033;-72
2022/04/24 01:29:14;;;;;;;15.20;6.38;;;;;;;;;;5075440;28;20029;-72
2022/04/24 01:31:41;;;;;;;16.90;7.68;;;;;;;;;;5074482;28;20582;-71
2022/04/24 01:34:07;;;;;;;18.52;7.80;;;;;;;;;;5073917;28;20036;-71
2022/04/24 01:36:33;;;;;;;15.98;7.68;;;;;;;;;;5073736;28;20108;-73
2022/04/24 01:39:00;;;;;;;18.42;7.40;;;;;;;;;;5077347;28;20028;-73
2022/04/24 01:41:26;;;;;;;11.75;6.43;;;;;;;;;;5071774;28;20810;-71
2022/04/24 01:43:55;;;;;;;15.73;6.72;;;;;;;;;;5078343;28;20032;-71
2022/04/24 01:46:21;;;;;;;18.77;7.30;;;;;;;;;;5075674;28;20054;-77
2022/04/24 01:48:47;;;;;;;14.32;6.10;;;;;;;;;;5074398;28;20104;-71
2022/04/24 01:51:14;;;;;;;19.17;7.30;;;;;;;;;;5077267;28;20029;-75
2022/04/24 01:53:41;;;;;;;15.35;8.70;;;;;;;;;;5079079;28;20131;-72
2022/04/24 01:56:07;;;;;;;18.98;8.20;;;;;;;;;;5080931;28;20028;-72
2022/04/24 01:58:34;;;;;;;23.38;8.43;;;;;;;;;;5085649;28;20035;-70
2022/04/24 02:01:00;;;;;;;15.02;7.18;;;;;;;;;;5085292;28;20067;-72
2022/04/24 02:03:27;;;;;;;11.98;7.05;;;;;;;;;;5076437;28;20416;-72
2022/04/24 02:05:53;;;;;;;11.43;6.07;;;;;;;;;;5076194;28;21037;-72
2022/04/24 02:08:19;;;;;;;17.05;7.50;;;;;;;;;;5078756;28;20032;-73
2022/04/24 02:10:46;;;;;;;17.48;7.55;;;;;;;;;;5081205;28;20116;-73
2022/04/24 02:13:12;;;;;;;16.88;7.00;;;;;;;;;;5082158;28;20040;-72
2022/04/24 02:15:38;;;;;;;16.27;7.35;;;;;;;;;;5080789;28;20084;-72
2022/04/24 02:18:05;;;;;;;18.95;7.57;;;;;;;;;;5080233;28;20086;-72
2022/04/24 02:20:31;;;;;;;15.38;7.60;;;;;;;;;;5092087;28;20075;-72
2022/04/24 02:23:00;;;;;;;23.27;8.18;;;;;;;;;;5080322;28;20028;-73
2022/04/24 02:25:30;;;;;;;16.02;7.70;;;;;;;;;;5091466;28;20129;-71
2022/04/24 02:27:57;;;;;;;11.27;6.55;;;;;;;;;;5079681;28;20082;-72
2022/04/24 02:30:24;;;;;;;19.48;7.20;;;;;;;;;;5079348;28;20042;-72
2022/04/24 02:32:50;;;;;;;15.00;7.53;;;;;;;;;;5076585;28;20061;-73
2022/04/24 02:35:17;;;;;;;16.98;7.47;;;;;;;;;;5078459;28;20052;-72
2022/04/24 02:37:44;;;;;;;16.00;7.07;;;;;;;;;;5080613;28;20028;-71
2022/04/24 02:40:10;;;;;;;15.90;7.32;;;;;;;;;;5067052;28;20020;-72
2022/04/24 02:42:37;;;;;;;16.08;7.53;;;;;;;;;;5077869;28;20039;-73
2022/04/24 02:45:04;;;;;;;19.63;7.95;;;;;;;;;;5084709;28;20060;-72
2022/04/24 02:47:30;;;;;;;15.38;7.97;;;;;;;;;;5079922;28;20043;-72
2022/04/24 02:49:56;;;;;;;12.38;7.32;;;;;;;;;;5080833;28;20071;-72
2022/04/24 02:52:22;;;;;;;13.80;7.50;;;;;;;;;;5084548;28;20032;-72
2022/04/24 02:54:48;;;;;;;14.35;7.55;;;;;;;;;;5081567;28;20050;-71
2022/04/24 02:57:14;;;;;;;13.15;6.95;;;;;;;;;;5084897;28;20464;-73
2022/04/24 02:59:45;;;;;;;14.95;7.47;;;;;;;;;;5081279;28;20032;-72
2022/04/24 03:02:14;;;;;;;15.77;8.50;;;;;;;;;;5080254;28;20051;-72
2022/04/24 03:04:40;;;;;;;17.95;8.18;;;;;;;;;;5078803;28;20078;-72
2022/04/24 03:07:06;;;;;;;17.40;8.45;;;;;;;;;;5080385;28;20120;-74
2022/04/24 03:09:32;;;;;;;14.23;8.52;;;;;;;;;;5076568;28;20039;-72
2022/04/24 03:11:58;;;;;;;10.65;7.80;;;;;;;;;;5078417;28;20032;-72
2022/04/24 03:14:25;;;;;;;18.80;8.82;;;;;;;;;;5077550;28;20044;-72
2022/04/24 03:16:51;;;;;;;17.65;7.78;;;;;;;;;;5077912;28;20051;-71
2022/04/24 03:19:17;;;;;;;17.65;7.55;;;;;;;;;;5081155;28;20112;-71
2022/04/24 03:21:43;;;;;;;17.73;8.55;;;;;;;;;;5080026;28;20093;-71
2022/04/24 03:24:09;;;;;;;15.38;8.18;;;;;;;;;;5078019;28;20068;-72
2022/04/24 03:26:35;;;;;;;15.82;7.38;;;;;;;;;;5076123;28;20056;-73
2022/04/24 03:29:02;;;;;;;10.32;7.40;;;;;;;;;;5073812;28;20051;-72
2022/04/24 03:31:28;;;;;;;13.52;7.80;;;;;;;;;;5079059;28;20101;-69
2022/04/24 03:33:54;;;;;;;20.52;8.90;;;;;;;;;;5080011;28;20101;-71
2022/04/24 03:36:20;;;;;;;17.73;7.60;;;;;;;;;;5078933;28;20017;-72
2022/04/24 03:38:46;;;;;;;14.48;8.13;;;;;;;;;;5076628;28;20113;-72
2022/04/24 03:41:12;;;;;;;17.80;7.15;;;;;;;;;;5078253;28;20085;-71
2022/04/24 03:43:39;;;;;;;11.93;6.80;;;;;;;;;;5077818;28;20037;-71
2022/04/24 03:46:07;;;;;;;16.23;7.35;;;;;;;;;;5078469;28;20032;-71
2022/04/24 03:48:34;;;;;;;13.38;7.38;;;;;;;;;;5077761;28;20040;-72
2022/04/24 03:51:01;;;;;;;14.00;7.57;;;;;;;;;;5075384;28;20437;-71
2022/04/24 03:53:27;;;;;;;16.95;7.60;;;;;;;;;;5073393;28;20724;-73
2022/04/24 03:55:53;;;;;;;17.00;7.93;;;;;;;;;;5070968;28;20035;-72
2022/04/24 03:58:19;;;;;;;14.60;7.05;;;;;;;;;;5075204;28;20093;-71
2022/04/24 04:00:46;;;;;;;15.75;6.97;;;;;;;;;;5076568;28;20157;-71
2022/04/24 04:03:12;;;;;;;14.80;6.75;;;;;;;;;;5076980;28;20020;-75
2022/04/24 04:05:39;;;;;;;14.40;7.95;;;;;;;;;;5077951;28;20032;-71
2022/04/24 04:08:05;;;;;;;12.85;8.10;;;;;;;;;;5078839;28;20016;-71
2022/04/24 04:10:31;;;;;;;14.05;7.40;;;;;;;;;;5074221;28;20421;-72
2022/04/24 04:12:57;;;;;;;15.27;8.27;;;;;;;;;;5074331;28;20064;-72
2022/04/24 04:15:24;;;;;;;16.85;7.72;;;;;;;;;;5079404;28;20041;-72
2022/04/24 04:17:50;;;;;;;14.93;7.05;;;;;;;;;;5076505;28;20525;-72
2022/04/24 04:20:16;;;;;;;12.88;7.60;;;;;;;;;;5071817;28;20025;-72
2022/04/24 04:22:48;;;;;;;19.23;7.65;;;;;;;;;;5076769;28;20490;-71
2022/04/24 04:25:14;;;;;;;21.33;8.07;;;;;;;;;;5077222;28;20043;-72
2022/04/24 04:27:40;;;;;;;16.10;7.57;;;;;;;;;;5090344;28;20060;-71
2022/04/24 04:30:06;;;;;;;16.05;7.57;;;;;;;;;;5078065;28;20036;-72
2022/04/24 04:32:32;;;;;;;19.38;7.95;;;;;;;;;;5080863;28;20025;-72
2022/04/24 04:34:58;;;;;;;15.85;8.30;;;;;;;;;;5077249;28;20036;-71
2022/04/24 04:37:25;;;;;;;15.07;8.23;;;;;;;;;;5082888;28;20382;-71
2022/04/24 04:39:51;;;;;;;13.50;8.10;;;;;;;;;;5077633;28;20118;-71
2022/04/24 04:42:17;;;;;;;19.77;7.88;;;;;;;;;;5076985;28;20021;-72
2022/04/24 04:44:43;;;;;;;14.98;7.55;;;;;;;;;;5075388;28;20079;-73
2022/04/24 04:47:09;;;;;;;16.25;8.20;;;;;;;;;;5078099;28;20032;-72
2022/04/24 04:49:36;;;;;;;20.77;8.02;;;;;;;;;;5076274;28;20079;-71
2022/04/24 04:52:02;;;;;;;14.20;7.50;;;;;;;;;;5075043;28;20060;-72
2022/04/24 04:54:28;;;;;;;18.27;7.80;;;;;;;;;;5076781;28;20029;-71
2022/04/24 04:56:54;;;;;;;18.15;7.72;;;;;;;;;;5076292;28;20105;-72
2022/04/24 04:59:23;;;;;;;15.98;7.82;;;;;;;;;;5077735;28;20024;-70
2022/04/24 05:01:49;;;;;;;15.00;7.80;;;;;;;;;;5076193;28;20116;-72
2022/04/24 05:04:15;;;;;;;20.35;7.75;;;;;;;;;;5077951;28;20137;-71
2022/04/24 05:06:41;;;;;;;15.02;7.13;;;;;;;;;;5074415;28;20035;-72
2022/04/24 05:09:07;;;;;;;11.75;7.20;;;;;;;;;;5078239;28;20032;-71
2022/04/24 05:11:33;;;;;;;25.77;9.63;;;;;;;;;;5077353;28;20029;-71
2022/04/24 05:13:59;;;;;;;13.35;7.50;;;;;;;;;;5079117;28;20048;-72
2022/04/24 05:16:25;;;;;;;16.55;7.38;;;;;;;;;;5067614;28;20040;-71
2022/04/24 05:18:52;;;;;;;13.40;7.00;;;;;;;;;;5074491;28;20116;-71
2022/04/24 05:21:18;;;;;;;13.43;7.00;;;;;;;;;;5075020;28;20130;-70
2022/04/24 05:23:46;;;;;;;14.57;7.05;;;;;;;;;;5074345;28;20092;-71
2022/04/24 05:26:12;;;;;;;18.42;7.80;;;;;;;;;;5076873;28;20551;-72
2022/04/24 05:28:39;;;;;;;15.90;6.88;;;;;;;;;;5080751;28;20047;-72
2022/04/24 05:31:08;;;;;;;12.30;7.03;;;;;;;;;;5079014;28;20033;-72
2022/04/24 05:33:34;;;;;;;20.48;8.27;;;;;;;;;;5082629;28;20230;-70
2022/04/24 05:36:00;;;;;;;15.15;7.00;;;;;;;;;;5085397;28;20036;-70
2022/04/24 05:38:26;;;;;;;12.82;7.57;;;;;;;;;;5083786;28;20055;-71
2022/04/24 05:40:52;;;;;;;20.80;7.70;;;;;;;;;;5079255;28;20024;-71
2022/04/24 05:43:18;;;;;;;17.20;7.80;;;;;;;;;;5079598;28;20033;-71
2022/04/24 05:45:45;;;;;;;22.75;7.18;;;;;;;;;;5078575;28;20052;-70
2022/04/24 05:48:11;;;;;;;16.35;6.30;;;;;;;;;;5076957;28;20032;-71
2022/04/24 05:50:37;;;;;;;11.90;5.97;;;;;;;;;;5079707;28;20056;-71
2022/04/24 05:53:03;;;;;;;12.80;6.50;;;;;;;;;;5080858;28;20028;-72
2022/04/24 05:55:29;;;;;;;9.60;6.35;;;;;;;;;;5079279;28;20048;-72
2022/04/24 05:57:55;;;;;;;15.02;7.55;;;;;;;;;;5080076;28;20100;-72
2022/04/24 06:00:22;;;;;;;17.25;6.82;;;;;;;;;;5095460;28;20376;-71
2022/04/24 06:02:51;;;;;;;17.20;8.18;;;;;;;;;;5077218;28;20525;-71
2022/04/24 06:05:17;;;;;;;14.27;7.15;;;;;;;;;;5095003;28;20818;-71
2022/04/24 06:07:43;;;;;;;11.07;6.35;;;;;;;;;;5079196;28;20041;-72
2022/04/24 06:10:11;;;;;;;13.75;6.47;;;;;;;;;;5081080;28;20095;-72
2022/04/24 06:13:03;;;;;;;15.43;6.18;;;;;;;;;;5078127;28;20069;-71
2022/04/24 06:15:29;;;;;;;15.10;6.38;;;;;;;;;;5079195;28;20052;-72
2022/04/24 06:17:57;;;;;;;13.55;6.63;;;;;;;;;;5078908;28;20044;-72
2022/04/24 06:20:24;;;;;;;8.13;5.40;;;;;;;;;;5080006;28;20028;-72
2022/04/24 06:22:51;;;;;;;18.30;6.90;;;;;;;;;;5076442;28;20036;-72
2022/04/24 06:25:25;;;;;;;12.52;6.60;;;;;;;;;;5079194;28;20372;-73
2022/04/24 06:27:52;;;;;;;15.48;6.60;;;;;;;;;;5079470;28;20028;-73
2022/04/24 06:30:19;;;;;;;11.65;6.10;;;;;;;;;;5080839;28;20212;-71
2022/04/24 06:32:45;;;;;;;9.52;6.10;;;;;;;;;;5077750;28;20776;-72
2022/04/24 06:35:14;;;;;;;11.25;5.90;;;;;;;;;;5079445;28;20032;-74
2022/04/24 06:37:41;;;;;;;13.07;6.90;;;;;;;;;;5077704;28;20035;-73
2022/04/24 06:40:08;;;;;;;17.52;7.32;;;;;;;;;;5080093;28;20036;-72
2022/04/24 06:42:47;;;;;;;16.95;6.45;;;;;;;;;;5079623;28;20032;-74
2022/04/24 06:45:13;;;;;;;13.88;5.97;;;;;;;;;;5081669;28;20393;-72
2022/04/24 06:47:39;;;;;;;13.00;6.40;;;;;;;;;;5080100;28;20243;-72
2022/04/24 06:50:05;;;;;;;14.30;5.80;;;;;;;;;;5076537;28;20096;-71
2022/04/24 06:52:31;;;;;;;8.05;5.43;;;;;;;;;;5076837;28;20020;-71
2022/04/24 06:55:00;;;;;;;14.73;6.30;;;;;;;;;;5075307;28;20046;-71
2022/04/24 06:57:26;;;;;;;12.77;6.07;;;;;;;;;;5079711;28;20036;-71
2022/04/24 06:59:52;;;;;;;13.43;5.85;;;;;;;;;;5082056;28;20016;-70
2022/04/24 07:02:18;;;;;;;11.02;6.18;;;;;;;;;;5080897;28;20063;-70
2022/04/24 07:04:44;;;;;;;14.50;5.78;;;;;;;;;;5077795;28;20020;-71
2022/04/24 07:07:10;;;;;;;20.60;5.70;;;;;;;;;;5077278;28;20052;-72
2022/04/24 07:09:36;;;;;;;9.73;5.93;;;;;;;;;;5075641;28;20044;-72
2022/04/24 07:12:02;;;;;;;10.18;6.30;;;;;;;;;;5079059;28;20162;-71
2022/04/24 07:14:28;;;;;;;10.98;5.72;;;;;;;;;;5077738;28;20052;-70
2022/04/24 07:16:55;;;;;;;12.02;5.55;;;;;;;;;;5077791;28;20484;-70
2022/04/24 07:19:21;;;;;;;17.67;5.47;;;;;;;;;;5086555;28;20116;-72
2022/04/24 07:21:48;;;;;;;12.07;5.07;;;;;;;;;;5081742;28;20095;-70
2022/04/24 07:24:14;;;;;;;13.13;4.88;;;;;;;;;;5081498;28;20482;-70
2022/04/24 07:26:40;;;;;;;14.35;4.75;;;;;;;;;;5082812;28;20024;-70
2022/04/24 07:29:06;;;;;;;10.15;5.15;;;;;;;;;;5077947;28;20047;-71
2022/04/24 07:31:32;;;;;;;12.38;4.93;;;;;;;;;;5075724;28;20040;-71
2022/04/24 07:33:58;;;;;;;12.23;5.28;;;;;;;;;;5076850;28;20032;-71
2022/04/24 07:36:25;;;;;;;18.80;5.53;;;;;;;;;;5081375;28;20040;-72
2022/04/24 07:38:51;;;;;;;14.73;5.10;;;;;;;;;;5078359;28;20162;-71
2022/04/24 07:41:17;;;;;;;7.38;4.15;;;;;;;;;;5077360;28;20028;-71
2022/04/24 07:43:48;;;;;;;19.48;4.90;;;;;;;;;;5078258;28;20021;-71
2022/04/24 07:46:15;;;;;;;7.40;4.78;;;;;;;;;;5079823;28;20350;-70
2022/04/24 07:48:41;;;;;;;8.88;3.60;;;;;;;;;;5076874;28;20036;-71
2022/04/24 07:51:07;;;;;;;10.43;4.50;;;;;;;;;;5077851;28;20050;-71
2022/04/24 07:53:33;;;;;;;10.60;3.95;;;;;;;;;;5077173;28;20093;-71
2022/04/24 07:55:59;;;;;;;10.30;3.83;;;;;;;;;;5078639;28;20112;-71
2022/04/24 07:58:25;;;;;;;12.93;4.38;;;;;;;;;;5079643;28;20036;-71
2022/04/24 08:00:51;;;;;;;9.20;4.00;;;;;;;;;;5081801;28;20059;-71
2022/04/24 08:03:19;;;;;;;8.48;3.35;;;;;;;;;;5074399;28;20051;-76
2022/04/24 08:05:45;;;;;;;17.40;4.20;;;;;;;;;;5076541;28;20068;-76
2022/04/24 08:08:17;;;;;;;7.75;4.07;;;;;;;;;;5078907;28;20048;-71
2022/04/24 08:10:44;;;;;;;7.38;3.58;;;;;;;;;;5078362;28;20089;-72
2022/04/24 08:13:54;;;;;;;;;;;;;;;;;;;;;
2022/04/24 08:16:24;;;;;;;11.23;3.35;;;;;;;;;;5068054;28;20475;-71
2022/04/24 08:18:50;;;;;;;9.18;3.80;;;;;;;;;;5078014;28;20472;-72
2022/04/24 08:21:16;;;;;;;8.30;4.18;;;;;;;;;;5075909;28;20055;-71
2022/04/24 08:23:42;;;;;;;8.63;3.22;;;;;;;;;;5076037;28;20020;-72
2022/04/24 08:26:10;;;;;;;5.70;3.17;;;;;;;;;;5076170;28;20047;-71
2022/04/24 08:28:36;;;;;;;9.95;4.00;;;;;;;;;;5081343;28;20038;-74
2022/04/24 08:31:06;;;;;;;12.60;3.17;;;;;;;;;;5082150;28;20034;-71
2022/04/24 08:33:32;;;;;;;10.50;4.15;;;;;;;;;;5082234;28;20114;-71
2022/04/24 08:35:58;;;;;;;6.68;3.15;;;;;;;;;;5081495;28;20028;-72
2022/04/24 08:38:24;;;;;;;7.80;3.20;;;;;;;;;;5077417;28;20059;-73
2022/04/24 08:40:51;;;;;;;11.70;2.88;;;;;;;;;;5072313;28;20024;-77
2022/04/24 08:43:17;;;;;;;9.10;3.97;;;;;;;;;;5075867;28;20214;-72
2022/04/24 08:45:43;;;;;;;7.82;2.65;;;;;;;;;;5074725;28;20035;-72
2022/04/24 08:48:09;;;;;;;9.20;3.15;;;;;;;;;;5068132;28;20047;-72
2022/04/24 08:50:36;;;;;;;8.85;2.97;;;;;;;;;;5067296;28;20028;-72
2022/04/24 08:53:03;;;;;;;8.45;3.08;;;;;;;;;;5068746;28;20096;-71
2022/04/24 08:55:33;;;;;;;9.77;3.65;;;;;;;;;;5071719;28;20036;-72
2022/04/24 08:57:59;;;;;;;9.57;3.33;;;;;;;;;;5073167;28;20164;-71
2022/04/24 09:00:27;;;;;;;4.63;3.08;;;;;;;;;;5074953;28;20017;-71
2022/04/24 09:02:53;;;;;;;5.25;2.60;;;;;;;;;;5070805;28;20025;-72
2022/04/24 09:05:21;;;;;;;5.80;2.65;;;;;;;;;;5070353;28;20033;-72
2022/04/24 09:07:48;;;;;;;5.72;2.78;;;;;;;;;;5075343;28;20082;-71
2022/04/24 09:10:14;;;;;;;5.65;2.90;;;;;;;;;;5074262;28;20110;-72
2022/04/24 09:12:43;;;;;;;5.82;3.03;;;;;;;;;;5073532;28;20515;-71
2022/04/24 09:15:09;;;;;;;6.38;3.42;;;;;;;;;;5072100;28;20133;-72
2022/04/24 09:17:36;;;;;;;8.43;2.92;;;;;;;;;;5073934;28;20427;-72
2022/04/24 09:20:15;;;;;;;9.48;3.30;;;;;;;;;;5074255;28;20055;-72
2022/04/24 09:22:42;;;;;;;7.07;3.10;;;;;;;;;;5076283;28;20016;-71
2022/04/24 09:25:24;;;;;;;8.02;3.72;;;;;;;;;;5078530;28;20058;-71
2022/04/24 09:27:54;;;;;;;5.65;3.08;;;;;;;;;;5074616;28;20075;-72
2022/04/24 09:30:25;;;;;;;12.45;3.25;;;;;;;;;;5090467;28;20029;-73
2022/04/24 09:32:57;;;;;;;6.88;3.22;;;;;;;;;;5075349;28;20096;-72
2022/04/24 09:35:27;;;;;;;9.25;3.05;;;;;;;;;;5080045;28;20128;-73
2022/04/24 09:38:03;;;;;;;5.07;3.03;;;;;;;;;;5060769;28;20052;-73
2022/04/24 09:40:37;;;;;;;8.35;3.05;;;;;;;;;;5066773;28;20032;-72
2022/04/24 09:43:03;;;;;;;6.55;2.70;;;;;;;;;;5065297;28;20072;-75
2022/04/24 09:45:29;;;;;;;7.57;3.05;;;;;;;;;;5066537;28;20189;-73
2022/04/24 09:48:03;;;;;;;7.20;2.78;;;;;;;;;;5067714;28;20039;-73
2022/04/24 09:50:29;;;;;;;8.00;2.90;;;;;;;;;;5076295;28;20093;-72
2022/04/24 09:52:57;;;;;;;6.68;2.65;;;;;;;;;;5068721;28;20074;-74
2022/04/24 09:55:30;;;;;;;7.57;2.72;;;;;;;;;;5066367;28;20029;-73
2022/04/24 09:57:57;;;;;;;8.93;2.95;;;;;;;;;;5078599;28;20189;-73
2022/04/24 10:00:23;;;;;;;4.25;2.63;;;;;;;;;;5070668;28;20107;-73
2022/04/24 10:02:50;;;;;;;7.43;2.92;;;;;;;;;;5065154;28;20442;-73
2022/04/24 10:05:16;;;;;;;8.85;3.83;;;;;;;;;;5067930;28;20123;-72
2022/04/24 10:07:43;;;;;;;4.88;2.25;;;;;;;;;;5068900;28;20028;-75
2022/04/24 10:10:12;;;;;;;5.40;2.97;;;;;;;;;;5074864;28;20024;-73
2022/04/24 10:12:40;;;;;;;8.23;2.85;;;;;;;;;;5070085;28;20040;-74
2022/04/24 10:15:13;;;;;;;9.75;4.63;;;;;;;;;;5070443;28;20081;-75
2022/04/24 10:17:57;;;;;;;7.50;2.67;;;;;;;;;;5072668;28;20032;-72
2022/04/24 10:20:26;;;;;;;3.67;2.65;;;;;;;;;;5076670;28;20446;-74
2022/04/24 10:22:56;;;;;;;9.50;4.32;;;;;;;;;;5073901;28;20029;-73
2022/04/24 10:25:37;;;;;;;8.60;3.05;;;;;;;;;;5073288;28;20035;-75
2022/04/24 10:28:13;;;;;;;9.23;4.13;;;;;;;;;;5071742;28;20032;-73
2022/04/24 10:30:39;;;;;;;4.90;3.00;;;;;;;;;;5068752;28;20104;-74
2022/04/24 10:33:17;;;;;;;9.13;3.70;;;;;;;;;;5068488;28;20031;-75
2022/04/24 10:35:59;;;;;;;7.57;2.88;;;;;;;;;;5072261;28;20142;-73
2022/04/24 10:38:26;;;;;;;5.85;2.80;;;;;;;;;;5069423;28;20032;-75
2022/04/24 10:40:59;;;;;;;6.40;2.53;;;;;;;;;;5067241;28;20379;-73
2022/04/24 10:43:25;;;;;;;10.13;3.30;;;;;;;;;;5056203;28;20042;-74
2022/04/24 10:45:52;;;;;;;5.57;2.90;;;;;;;;;;5082502;28;20215;-74
2022/04/24 10:48:50;;;;;;;6.32;2.90;;;;;;;;;;5077824;28;20032;-72
2022/04/24 10:51:41;;;;;;;;;;;;;;;;;;;;;
2022/04/24 10:54:08;;;;;;;7.28;3.10;;;;;;;;;;5082450;28;20370;-73
2022/04/24 10:56:35;;;;;;;6.07;3.20;;;;;;;;;;5082007;28;20148;-73
2022/04/24 10:59:08;;;;;;;7.68;3.03;;;;;;;;;;5078473;28;20379;-73
2022/04/24 11:01:38;;;;;;;6.65;2.85;;;;;;;;;;5089351;28;20044;-73
2022/04/24 11:04:06;;;;;;;4.32;2.95;;;;;;;;;;5086307;28;20136;-71
2022/04/24 11:06:32;;;;;;;10.57;3.20;;;;;;;;;;5089163;28;20035;-73
2022/04/24 11:09:09;;;;;;;5.40;2.55;;;;;;;;;;5087665;28;20069;-73
2022/04/24 11:11:44;;;;;;;6.72;2.92;;;;;;;;;;5084188;28;20032;-72
2022/04/24 11:14:10;;;;;;;4.10;2.72;;;;;;;;;;5076609;28;20071;-70
2022/04/24 11:16:37;;;;;;;6.35;2.92;;;;;;;;;;5086283;28;20035;-73
2022/04/24 11:19:05;;;;;;;4.97;2.58;;;;;;;;;;5086286;28;20032;-72
2022/04/24 11:21:39;;;;;;;5.20;3.08;;;;;;;;;;5082271;28;20021;-72
2022/04/24 11:24:07;;;;;;;7.25;3.35;;;;;;;;;;5084373;28;20043;-73
2022/04/24 11:26:33;;;;;;;4.25;2.50;;;;;;;;;;5082389;28;20115;-72
2022/04/24 11:29:08;;;;;;;6.80;2.80;;;;;;;;;;5078525;28;20036;-73
2022/04/24 11:32:29;;;;;;;5.82;2.47;;;;;;;;;;5089006;28;20103;-71
2022/04/24 11:34:39;;;;;;;4.78;3.13;;;;;;;;;;5079867;28;20044;-71
2022/04/24 11:37:05;;;;;;;6.30;2.63;;;;;;;;;;5084300;28;20155;-73
2022/04/24 11:39:32;;;;;;;6.47;2.70;;;;;;;;;;5080684;28;20039;-73
2022/04/24 11:41:59;;;;;;;4.47;2.90;;;;;;;;;;5084722;28;20112;-72
2022/04/24 11:50:13;;;;;;;7.93;3.22;;;;;;;;;;5084507;28;20119;-72
2022/04/24 11:52:49;;;;;;;6.05;2.80;;;;;;;;;;5086067;28;20151;-72
2022/04/24 11:58:13;;;;;;;9.18;3.78;;;;;;;;;;5084875;28;20556;-72
2022/04/24 12:00:39;;;;;;;4.75;3.20;;;;;;;;;;5086365;28;20028;-72
2022/04/24 12:03:11;;;;;;;6.30;3.03;;;;;;;;;;5082967;28;21235;-71
2022/04/24 12:05:38;;;;;;;5.47;2.67;;;;;;;;;;5077021;28;20028;-73
2022/04/24 12:08:05;;;;;;;11.63;3.22;;;;;;;;;;5084582;28;20567;-72
2022/04/24 12:10:32;;;;;;;5.72;3.00;;;;;;;;;;5081215;28;20032;-73
2022/04/24 12:13:06;;;;;;;5.80;3.08;;;;;;;;;;5084368;28;20112;-72
2022/04/24 12:15:34;;;;;;;4.22;2.60;;;;;;;;;;5086496;28;20096;-72
2022/04/24 12:18:00;;;;;;;3.15;2.60;;;;;;;;;;5084787;28;20162;-72
2022/04/24 12:20:40;;;;;;;4.28;2.70;;;;;;;;;;5072552;28;20051;-72
2022/04/24 12:23:27;;;;;;;8.32;2.85;;;;;;;;;;5076946;28;20118;-72
2022/04/24 12:25:57;;;;;;;7.35;3.00;;;;;;;;;;5078626;28;20028;-73
2022/04/24 12:28:30;;;;;;;6.38;3.00;;;;;;;;;;5080697;28;20108;-73
2022/04/24 12:30:57;;;;;;;6.15;2.78;;;;;;;;;;5072848;28;20048;-74
2022/04/24 12:33:23;;;;;;;6.38;2.97;;;;;;;;;;5084981;28;20288;-73
2022/04/24 12:35:49;;;;;;;7.78;3.30;;;;;;;;;;5081810;28;20035;-73
2022/04/24 12:38:16;;;;;;;4.53;2.53;;;;;;;;;;5086594;28;20031;-72
2022/04/24 12:40:42;;;;;;;7.25;2.60;;;;;;;;;;5087147;28;20454;-73
2022/04/24 12:43:08;;;;;;;7.13;3.00;;;;;;;;;;5086064;28;20023;-71
2022/04/24 12:45:34;;;;;;;5.40;2.83;;;;;;;;;;5078234;28;20055;-73
2022/04/24 12:48:01;;;;;;;6.95;2.75;;;;;;;;;;5076754;28;20024;-73
2022/04/24 12:50:27;;;;;;;8.10;2.92;;;;;;;;;;5075788;28;20783;-72
2022/04/24 12:52:53;;;;;;;5.90;3.10;;;;;;;;;;5089402;28;20033;-76
2022/04/24 12:55:19;;;;;;;7.32;2.83;;;;;;;;;;5073066;28;20076;-74
2022/04/24 12:57:45;;;;;;;5.50;2.60;;;;;;;;;;5080342;28;20033;-73
2022/04/24 13:00:12;;;;;;;5.05;2.53;;;;;;;;;;5069097;28;20025;-78
2022/04/24 13:02:38;;;;;;;3.80;2.78;;;;;;;;;;5080426;28;20038;-79
2022/04/24 13:05:29;;;;;;;7.53;2.97;;;;;;;;;;5071830;28;20024;-78
2022/04/24 13:08:01;;;;;;;7.05;2.45;;;;;;;;;;5081708;28;20174;-75
2022/04/24 13:10:27;;;;;;;3.88;2.50;;;;;;;;;;5071851;28;20025;-76
2022/04/24 13:13:00;;;;;;;7.65;3.53;;;;;;;;;;5081273;28;20139;-79
2022/04/24 13:15:26;;;;;;;5.93;2.65;;;;;;;;;;5085479;28;20045;-77
2022/04/24 13:18:08;;;;;;;4.28;2.55;;;;;;;;;;5082820;28;20531;-78
2022/04/24 13:20:53;;;;;;;7.60;3.10;;;;;;;;;;5077102;28;20020;-73
2022/04/24 13:23:19;;;;;;;6.28;2.70;;;;;;;;;;5077927;28;20043;-77
2022/04/24 13:25:46;;;;;;;5.43;2.67;;;;;;;;;;5081344;28;20449;-81
2022/04/24 13:28:16;;;;;;;5.65;2.80;;;;;;;;;;5100263;28;20009;-81
2022/04/24 13:30:46;;;;;;;7.55;3.00;;;;;;;;;;5080515;28;20490;-74
2022/04/24 13:33:27;;;;;;;5.20;3.00;;;;;;;;;;5083106;28;20044;-76
2022/04/24 13:35:55;;;;;;;7.72;3.58;;;;;;;;;;5073708;28;20036;-76
2022/04/24 13:38:21;;;;;;;6.10;3.00;;;;;;;;;;5072946;28;20032;-74
2022/04/24 13:40:54;;;;;;;4.60;2.45;;;;;;;;;;5076240;28;20327;-76
2022/04/24 13:43:21;;;;;;;6.82;2.70;;;;;;;;;;5071241;28;20498;-81
2022/04/24 13:45:52;;;;;;;4.38;2.53;;;;;;;;;;5077116;28;20024;-75
2022/04/24 13:48:24;;;;;;;5.25;2.72;;;;;;;;;;5074637;28;20051;-76
2022/04/24 13:50:50;;;;;;;6.05;3.10;;;;;;;;;;5075194;28;20033;-75
2022/04/24 13:53:36;;;;;;;4.03;2.60;;;;;;;;;;5083100;28;20036;-79
2022/04/24 13:56:03;;;;;;;6.32;3.00;;;;;;;;;;5080273;28;20490;-78
2022/04/24 13:58:29;;;;;;;4.55;2.30;;;;;;;;;;5080773;28;20032;-78
2022/04/24 14:00:55;;;;;;;6.72;2.70;;;;;;;;;;5083888;28;20501;-78
2022/04/24 14:03:22;;;;;;;6.28;3.03;;;;;;;;;;5079815;28;20029;-80
2022/04/24 14:05:49;;;;;;;5.30;3.60;;;;;;;;;;5083687;28;20021;-76
2022/04/24 14:08:16;;;;;;;5.30;2.80;;;;;;;;;;5077411;28;20032;-75
2022/04/24 14:10:46;;;;;;;7.95;2.80;;;;;;;;;;5082067;28;20040;-78
2022/04/24 14:13:13;;;;;;;8.20;3.65;;;;;;;;;;5079325;28;20067;-78
2022/04/24 14:15:39;;;;;;;4.47;2.60;;;;;;;;;;5084022;28;20036;-80
2022/04/24 14:18:05;;;;;;;10.02;3.45;;;;;;;;;;5076624;28;20055;-77
2022/04/24 14:20:32;;;;;;;6.13;2.78;;;;;;;;;;5082071;28;20032;-80
2022/04/24 14:22:58;;;;;;;6.65;3.25;;;;;;;;;;5072571;28;20028;-79
2022/04/24 14:25:24;;;;;;;4.57;2.80;;;;;;;;;;5079328;28;20141;-79
2022/04/24 14:27:50;;;;;;;6.07;2.97;;;;;;;;;;5075369;28;20218;-75
2022/04/24 14:30:17;;;;;;;6.03;2.78;;;;;;;;;;5088351;28;20077;-81
2022/04/24 14:32:44;;;;;;;4.43;2.80;;;;;;;;;;5075393;28;20120;-78
2022/04/24 14:35:12;;;;;;;6.43;2.95;;;;;;;;;;5076772;28;20257;-76
2022/04/24 14:37:38;;;;;;;6.85;2.67;;;;;;;;;;5077953;28;20117;-77
2022/04/24 14:40:06;;;;;;;4.72;2.78;;;;;;;;;;5076343;28;20032;-79
2022/04/24 14:42:35;;;;;;;5.53;2.60;;;;;;;;;;5082180;28;20047;-75
2022/04/24 14:45:02;;;;;;;5.07;2.75;;;;;;;;;;5067419;28;20048;-79
2022/04/24 14:55:45;;;;;;;4.65;2.60;;;;;;;;;;5077731;28;20038;-78
2022/04/24 14:58:12;;;;;;;6.55;2.95;;;;;;;;;;5074622;28;20063;-78
2022/04/24 15:00:41;;;;;;;6.65;3.03;;;;;;;;;;5076074;28;20035;-78